createdAt,value
2018-06-05T00:04:02.549Z,18.40
2018-06-05T00:08:37.001Z,18.30
2018-06-05T00:13:11.525Z,18.20
2018-06-05T00:17:46.283Z,18.20
2018-06-05T00:22:20.745Z,18.10
2018-06-05T00:26:55.606Z,18.10
2018-06-05T00:31:30.073Z,18.10
2018-06-05T00:36:04.471Z,18.00
2018-06-05T00:40:38.985Z,18.00
2018-06-05T00:45:13.590Z,17.90
2018-06-05T00:49:47.944Z,17.90
2018-06-05T00:54:22.506Z,17.80
2018-06-05T00:58:56.810Z,17.80
2018-06-05T01:03:31.370Z,17.70
2018-06-05T01:08:05.890Z,17.70
2018-06-05T01:12:40.104Z,17.60
2018-06-05T01:17:14.762Z,17.50
2018-06-05T01:21:49.009Z,17.50
2018-06-05T01:26:23.214Z,17.50
2018-06-05T01:30:57.797Z,17.50
2018-06-05T01:35:32.229Z,17.50
2018-06-05T01:40:06.698Z,17.40
2018-06-05T01:44:41.142Z,17.40
2018-06-05T01:53:49.831Z,17.20
2018-06-05T01:58:24.291Z,17.10
2018-06-05T02:02:58.802Z,17.10
2018-06-05T02:07:33.218Z,17.00
2018-06-05T02:12:07.426Z,17.00
2018-06-05T02:21:15.847Z,16.90
2018-06-05T02:25:50.211Z,16.90
2018-06-05T02:30:24.679Z,16.80
2018-06-05T02:34:59.816Z,16.70
2018-06-05T02:39:34.289Z,16.70
2018-06-05T02:44:08.637Z,16.70
2018-06-05T02:48:43.155Z,16.60
2018-06-05T02:53:17.800Z,16.60
2018-06-05T02:57:52.361Z,16.60
2018-06-05T03:02:26.805Z,16.50
2018-06-05T03:07:01.173Z,16.40
2018-06-05T03:11:35.746Z,16.30
2018-06-05T03:16:10.294Z,16.30
2018-06-05T03:20:44.802Z,16.30
2018-06-05T03:25:19.615Z,16.30
2018-06-05T03:29:54.184Z,16.30
2018-06-05T03:34:28.510Z,16.40
2018-06-05T03:39:02.917Z,16.50
2018-06-05T03:43:37.388Z,16.40
2018-06-05T03:48:11.856Z,16.50
2018-06-05T03:52:46.089Z,16.60
2018-06-05T03:57:20.582Z,16.60
2018-06-05T04:06:29.181Z,16.60
2018-06-05T04:11:03.520Z,16.70
2018-06-05T04:15:37.815Z,16.70
2018-06-05T04:20:13.201Z,16.80
2018-06-05T04:24:47.426Z,16.80
2018-06-05T04:29:21.892Z,16.90
2018-06-05T04:33:56.264Z,17.10
2018-06-05T04:38:30.643Z,17.20
2018-06-05T04:43:04.963Z,17.40
2018-06-05T04:47:39.541Z,17.50
2018-06-05T04:52:13.925Z,17.60
2018-06-05T04:56:48.389Z,17.80
2018-06-05T05:01:22.822Z,17.90
2018-06-05T05:05:57.347Z,18.20
2018-06-05T05:10:31.685Z,18.30
2018-06-05T05:15:06.322Z,18.50
2018-06-05T05:19:40.595Z,18.70
2018-06-05T05:24:14.786Z,18.90
2018-06-05T05:28:49.434Z,19.10
2018-06-05T05:33:23.717Z,19.30
2018-06-05T05:37:58.189Z,19.50
2018-06-05T05:42:32.498Z,19.70
2018-06-05T05:47:07.192Z,20.00
2018-06-05T05:51:41.607Z,20.20
2018-06-05T05:56:16.546Z,20.40
2018-06-05T06:00:51.029Z,20.70
2018-06-05T06:05:25.418Z,21.00
2018-06-05T06:10:00.261Z,21.20
2018-06-05T06:14:34.719Z,21.40
2018-06-05T06:19:09.001Z,21.70
2018-06-05T06:23:43.376Z,21.90
2018-06-05T06:28:17.650Z,22.00
2018-06-05T06:32:52.210Z,22.20
2018-06-05T06:37:26.746Z,22.40
2018-06-05T06:42:01.205Z,22.50
2018-06-05T06:46:35.455Z,22.70
2018-06-05T06:51:09.937Z,22.90
2018-06-05T06:55:44.425Z,23.10
2018-06-05T07:00:19.509Z,23.40
2018-06-05T07:04:53.748Z,23.70
2018-06-05T07:09:28.175Z,23.90
2018-06-05T07:14:02.802Z,24.20
2018-06-05T07:18:37.537Z,24.50
2018-06-05T07:23:12.033Z,24.70
2018-06-05T07:27:46.409Z,24.90
2018-06-05T07:32:20.814Z,25.00
2018-06-05T07:36:56.226Z,25.10
2018-06-05T07:41:30.896Z,25.30
2018-06-05T07:46:05.911Z,25.40
2018-06-05T07:50:40.214Z,25.70
2018-06-05T07:55:14.631Z,25.80
2018-06-05T07:59:49.065Z,26.10
2018-06-05T08:04:23.721Z,26.40
2018-06-05T08:08:58.348Z,26.80
2018-06-05T08:13:32.788Z,27.20
2018-06-05T08:18:07.206Z,27.70
2018-06-05T08:22:53.378Z,27.80
2018-06-05T08:32:02.567Z,28.10
2018-06-05T08:36:37.158Z,28.60
2018-06-05T08:41:11.758Z,30.00
2018-06-05T08:45:46.101Z,31.20
2018-06-05T08:50:20.670Z,32.10
2018-06-05T08:54:55.077Z,32.90
2018-06-05T08:59:29.621Z,33.70
2018-06-05T09:04:04.134Z,34.40
2018-06-05T09:08:38.592Z,34.80
2018-06-05T09:13:13.457Z,35.40
2018-06-05T09:17:47.884Z,34.90
2018-06-05T09:22:22.205Z,34.60
2018-06-05T09:26:56.637Z,34.80
2018-06-05T09:31:30.994Z,35.40
2018-06-05T09:36:05.337Z,35.80
2018-06-05T09:40:39.746Z,36.10
2018-06-05T09:45:13.946Z,36.00
2018-06-05T09:49:48.452Z,36.00
2018-06-05T09:54:23.179Z,36.50
2018-06-05T09:58:57.641Z,36.10
2018-06-05T10:03:32.022Z,36.80
2018-06-05T10:08:06.329Z,37.10
2018-06-05T10:12:40.851Z,36.80
2018-06-05T10:17:15.105Z,36.60
2018-06-05T10:21:49.642Z,36.80
2018-06-05T10:26:23.834Z,37.00
2018-06-05T10:30:58.254Z,36.80
2018-06-05T10:35:32.808Z,37.20
2018-06-05T10:40:07.765Z,37.00
2018-06-05T10:49:16.230Z,37.80
2018-06-05T10:53:50.406Z,37.00
2018-06-05T10:58:25.021Z,36.80
2018-06-05T11:02:59.661Z,36.40
2018-06-05T11:07:34.004Z,36.90
2018-06-05T11:12:08.883Z,37.10
2018-06-05T11:16:43.574Z,37.60
2018-06-05T11:21:18.213Z,37.60
2018-06-05T11:25:52.581Z,37.90
2018-06-05T11:30:27.205Z,38.30
2018-06-05T11:35:02.130Z,37.70
2018-06-05T11:39:36.494Z,36.50
2018-06-05T11:44:11.407Z,36.70
2018-06-05T11:48:45.647Z,35.50
2018-06-05T11:53:20.431Z,36.20
2018-06-05T11:57:56.069Z,36.50
2018-06-05T12:02:31.135Z,35.30
2018-06-05T12:07:05.605Z,36.10
2018-06-05T12:11:39.977Z,36.60
2018-06-05T12:16:14.430Z,35.00
2018-06-05T12:20:48.860Z,33.20
2018-06-05T12:25:23.086Z,32.40
2018-06-05T12:29:57.305Z,32.00
2018-06-05T12:34:31.717Z,31.80
2018-06-05T12:39:08.146Z,32.70
2018-06-05T12:43:42.637Z,34.10
2018-06-05T12:48:18.196Z,35.30
2018-06-05T12:52:53.362Z,36.00
2018-06-05T12:57:28.121Z,36.40
2018-06-05T13:02:02.469Z,37.10
2018-06-05T13:06:37.303Z,37.50
2018-06-05T13:11:12.040Z,37.50
2018-06-05T13:15:47.206Z,37.10
2018-06-05T13:20:22.029Z,37.10
2018-06-05T13:24:56.933Z,36.80
2018-06-05T13:29:31.429Z,36.10
2018-06-05T13:34:06.265Z,35.30
2018-06-05T13:38:41.233Z,34.10
2018-06-05T13:43:15.938Z,33.40
2018-06-05T13:47:50.832Z,32.50
2018-06-05T13:52:25.296Z,32.40
2018-06-05T13:57:00.045Z,32.30
2018-06-05T14:01:34.624Z,32.20
2018-06-05T14:06:08.946Z,32.20
2018-06-05T14:15:17.830Z,32.50
2018-06-05T14:19:52.356Z,32.40
2018-06-05T14:24:27.421Z,32.10
2018-06-05T14:29:01.921Z,32.10
2018-06-05T14:33:36.190Z,32.60
2018-06-05T14:38:10.469Z,32.60
2018-06-05T14:42:44.745Z,32.50
2018-06-05T14:47:20.469Z,32.30
2018-06-05T14:51:55.498Z,31.70
2018-06-05T14:56:30.037Z,31.10
2018-06-05T15:01:04.963Z,30.90
2018-06-05T15:05:39.596Z,31.10
2018-06-05T15:10:13.908Z,31.50
2018-06-05T15:14:48.648Z,31.30
2018-06-05T15:19:23.021Z,31.10
2018-06-05T15:23:57.568Z,30.90
2018-06-05T15:28:32.456Z,30.80
2018-06-05T15:33:06.895Z,30.90
2018-06-05T15:37:41.402Z,31.00
2018-06-05T15:42:16.380Z,31.00
2018-06-05T15:46:50.907Z,30.70
2018-06-05T15:51:26.417Z,30.30
2018-06-05T15:56:01.038Z,30.00
2018-06-05T16:00:36.790Z,29.90
2018-06-05T16:05:11.309Z,30.00
2018-06-05T16:09:45.846Z,30.00
2018-06-05T16:18:54.750Z,29.70
2018-06-05T16:23:29.100Z,29.90
2018-06-05T16:28:04.141Z,29.70
2018-06-05T16:32:38.439Z,29.80
2018-06-05T16:41:48.745Z,29.40
2018-06-05T16:46:24.306Z,29.30
2018-06-05T16:50:58.501Z,29.30
2018-06-05T16:55:33.037Z,29.20
2018-06-05T17:00:07.297Z,29.00
2018-06-05T17:04:41.555Z,29.00
2018-06-05T17:09:15.923Z,29.10
2018-06-05T17:13:50.338Z,29.10
2018-06-05T17:18:24.995Z,29.00
2018-06-05T17:22:59.410Z,28.90
2018-06-05T17:27:33.963Z,28.90
2018-06-05T17:32:08.517Z,28.80
2018-06-05T17:36:43.046Z,28.70
2018-06-05T17:41:17.630Z,28.50
2018-06-05T17:45:53.039Z,28.40
2018-06-05T17:50:27.506Z,28.10
2018-06-05T17:55:01.734Z,28.10
2018-06-05T17:59:36.336Z,27.90
2018-06-05T18:04:10.767Z,27.80
2018-06-05T18:08:45.101Z,27.60
2018-06-05T18:13:19.350Z,27.50
2018-06-05T18:17:53.657Z,27.40
2018-06-05T18:22:28.090Z,27.30
2018-06-05T18:27:02.540Z,27.30
2018-06-05T18:31:36.865Z,27.20
2018-06-05T18:36:11.377Z,27.20
2018-06-05T18:40:45.909Z,27.00
2018-06-05T18:45:20.273Z,27.00
2018-06-05T18:49:54.678Z,26.90
2018-06-05T18:54:29.121Z,26.80
2018-06-05T18:59:03.682Z,26.60
2018-06-05T19:03:38.011Z,26.50
2018-06-05T19:08:12.352Z,26.40
2018-06-05T19:12:46.762Z,26.20
2018-06-05T19:17:21.187Z,26.10
2018-06-05T19:21:55.526Z,25.80
2018-06-05T19:26:29.997Z,25.50
2018-06-05T19:31:04.554Z,25.20
2018-06-05T19:35:39.019Z,25.00
2018-06-05T19:40:13.654Z,24.70
2018-06-05T19:44:48.200Z,24.40
2018-06-05T19:49:22.733Z,24.30
2018-06-05T19:53:57.227Z,24.00
2018-06-05T19:58:31.717Z,23.90
2018-06-05T20:03:06.266Z,23.90
2018-06-05T20:07:40.730Z,23.90
2018-06-05T20:12:15.290Z,23.90
2018-06-05T20:16:50.026Z,23.80
2018-06-05T20:21:24.525Z,23.70
2018-06-05T20:25:59.114Z,23.60
2018-06-05T20:30:33.929Z,23.50
2018-06-05T20:35:08.725Z,23.30
2018-06-05T20:39:43.129Z,23.10
2018-06-05T20:44:18.573Z,23.00
2018-06-05T20:48:53.271Z,23.00
2018-06-05T20:53:27.793Z,23.00
2018-06-05T20:58:02.182Z,22.90
2018-06-05T21:02:36.386Z,22.70
2018-06-05T21:07:11.010Z,22.70
2018-06-05T21:11:45.271Z,22.60
2018-06-05T21:16:19.852Z,22.60
2018-06-05T21:20:54.047Z,22.50
2018-06-05T21:25:28.553Z,22.50
2018-06-05T21:30:03.226Z,22.40
2018-06-05T21:34:37.838Z,22.40
2018-06-05T21:39:12.305Z,22.30
2018-06-05T21:43:46.825Z,22.30
2018-06-05T21:48:21.177Z,22.20
2018-06-05T21:52:55.520Z,22.10
2018-06-05T21:57:29.938Z,22.10
2018-06-05T22:02:04.273Z,22.00
2018-06-05T22:06:39.201Z,21.90
2018-06-05T22:11:13.927Z,21.90
2018-06-05T22:15:48.428Z,21.80
2018-06-05T22:20:22.665Z,21.70
2018-06-05T22:24:57.164Z,21.70
2018-06-05T22:29:31.566Z,21.60
2018-06-05T22:34:06.103Z,21.50
2018-06-05T22:38:40.542Z,21.50
2018-06-05T22:43:15.122Z,21.40
2018-06-05T22:47:49.538Z,21.30
2018-06-05T22:52:24.097Z,21.20
2018-06-05T22:56:58.409Z,21.10
2018-06-05T23:01:32.722Z,21.00
2018-06-05T23:06:07.105Z,21.00
2018-06-05T23:10:41.502Z,21.00
2018-06-05T23:15:15.930Z,21.00
2018-06-05T23:19:50.271Z,21.00
2018-06-05T23:24:24.849Z,20.90
2018-06-05T23:28:59.105Z,20.80
2018-06-05T23:33:33.533Z,20.80
2018-06-05T23:38:07.790Z,20.80
2018-06-05T23:42:42.122Z,20.80
2018-06-05T23:47:16.472Z,20.70
2018-06-05T23:51:54.868Z,20.60
2018-06-05T23:56:29.067Z,20.50
